Time;durP1;ratioP1;P1;durP2;ratioP2;P2;SDS_P1;SDS_P2;PMS_P1;PMS_P2;Temp;Humidity;BMP_temperature;BMP_pressure;BME280_temperature;BME280_humidity;BME280_pressure;Samples;Min_cycle;Max_cycle;Signal;HPM_P1;HPM_P2
2022/06/11 00:00:13;;;;;;;6.80;3.00;;;;;;;22.84;46.74;101465.50;685008;28;1066;-79
2022/06/11 00:00:34;;;;;;;6.60;3.00;;;;;;;22.74;46.81;101446.09;682884;28;940;-79
2022/06/11 00:00:55;;;;;;;5.00;3.05;;;;;;;22.72;46.80;101445.25;682816;29;1236;-79
2022/06/11 00:01:27;;;;;;;3.83;3.10;;;;;;;22.74;46.99;101457.63;680453;29;1481;-79
2022/06/11 00:01:54;;;;;;;5.78;3.10;;;;;;;22.70;47.03;101447.91;683042;29;808;-80
2022/06/11 00:02:14;;;;;;;7.03;3.20;;;;;;;22.76;46.93;101462.06;683155;28;1998;-80
2022/06/11 00:02:36;;;;;;;5.97;3.25;;;;;;;22.66;46.76;101446.22;682762;29;1278;-81
2022/06/11 00:02:57;;;;;;;6.50;3.60;;;;;;;22.68;47.01;101449.72;685468;28;1264;-79
2022/06/11 00:03:18;;;;;;;6.38;3.58;;;;;;;22.64;46.98;101448.00;687893;28;1705;-79
2022/06/11 00:03:41;;;;;;;7.40;3.75;;;;;;;22.74;47.00;101470.94;686538;28;1853;-79
2022/06/11 00:04:06;;;;;;;7.72;3.58;;;;;;;22.72;46.93;101451.47;680826;29;1722;-79
2022/06/11 00:04:32;;;;;;;5.45;3.10;;;;;;;22.67;47.17;101447.97;681611;28;1503;-79
2022/06/11 00:04:53;;;;;;;3.75;3.08;;;;;;;22.73;47.15;101460.31;682850;29;1044;-80
2022/06/11 00:05:14;;;;;;;4.03;3.13;;;;;;;22.72;47.19;101461.22;685135;28;1700;-79
2022/06/11 00:05:36;;;;;;;5.70;3.20;;;;;;;22.67;47.02;101452.41;685377;28;1881;-79
2022/06/11 00:05:58;;;;;;;7.53;3.20;;;;;;;22.68;47.02;101451.53;680309;29;1216;-79
2022/06/11 00:06:20;;;;;;;7.60;3.30;;;;;;;22.76;47.15;101467.38;683319;28;1502;-79
2022/06/11 00:06:45;;;;;;;6.57;3.50;;;;;;;22.71;47.17;101460.34;685499;28;1910;-80
2022/06/11 00:07:11;;;;;;;5.00;3.47;;;;;;;22.75;46.91;101469.16;681026;28;1652;-80
2022/06/11 00:07:33;;;;;;;5.05;3.30;;;;;;;22.72;47.11;101467.44;685391;28;987;-80
2022/06/11 00:07:59;;;;;;;5.15;3.20;;;;;;;22.66;47.28;101458.63;682941;29;1308;-79
2022/06/11 00:08:20;;;;;;;5.60;3.40;;;;;;;22.63;47.29;101448.91;684978;28;1617;-79
2022/06/11 00:08:41;;;;;;;5.05;3.20;;;;;;;22.64;47.01;101449.78;684747;28;1322;-80
2022/06/11 00:09:03;;;;;;;4.75;3.28;;;;;;;22.72;47.10;101464.75;682364;29;1955;-80
2022/06/11 00:09:26;;;;;;;6.65;3.30;;;;;;;22.62;47.24;101449.78;684799;28;1676;-79
2022/06/11 00:09:48;;;;;;;6.60;3.35;;;;;;;22.61;47.10;101442.72;687655;28;1289;-79
2022/06/11 00:10:10;;;;;;;5.72;3.30;;;;;;;22.69;47.37;101466.56;681921;29;1970;-79
2022/06/11 00:10:30;;;;;;;4.63;3.40;;;;;;;22.60;47.34;101449.81;682781;28;1077;-80
2022/06/11 00:10:51;;;;;;;5.03;3.33;;;;;;;22.63;47.02;101454.25;682981;29;1275;-79
2022/06/11 00:11:12;;;;;;;5.93;3.35;;;;;;;22.70;47.21;101469.19;681670;28;1391;-80
2022/06/11 00:11:34;;;;;;;6.32;3.13;;;;;;;22.62;47.00;101443.59;684756;28;1123;-80
2022/06/11 00:11:55;;;;;;;5.82;3.10;;;;;;;22.65;47.23;101449.78;685519;28;753;-79
2022/06/11 00:12:16;;;;;;;5.28;3.10;;;;;;;22.62;47.21;101460.44;681004;29;1717;-79
2022/06/11 00:12:52;;;;;;;4.00;3.05;;;;;;;22.67;47.08;101463.94;682268;29;1967;-80
2022/06/11 00:13:15;;;;;;;5.20;3.20;;;;;;;22.58;47.33;101448.06;683649;28;1552;-79
2022/06/11 00:13:36;;;;;;;4.75;3.30;;;;;;;22.56;47.08;101442.78;687776;28;1095;-79
2022/06/11 00:13:56;;;;;;;4.47;3.25;;;;;;;22.65;47.46;101463.06;688200;28;1231;-79
2022/06/11 00:14:19;;;;;;;5.30;3.28;;;;;;;22.56;47.47;101444.56;687859;28;1521;-79
2022/06/11 00:14:42;;;;;;;5.43;3.20;;;;;;;22.63;47.37;101462.22;685482;28;1204;-79
2022/06/11 00:15:05;;;;;;;4.72;3.28;;;;;;;22.60;47.44;101464.91;683405;28;1678;-79
2022/06/11 00:15:26;;;;;;;4.38;3.40;;;;;;;22.61;47.27;101464.00;681647;29;1324;-80
2022/06/11 00:15:47;;;;;;;4.85;3.35;;;;;;;22.57;47.57;101451.63;685574;28;855;-79
2022/06/11 00:16:10;;;;;;;4.90;3.22;;;;;;;22.59;47.44;101449.84;690591;28;1462;-79
2022/06/11 00:16:32;;;;;;;5.38;3.25;;;;;;;22.55;47.43;101451.66;685190;28;1199;-79
2022/06/11 00:16:54;;;;;;;4.80;3.40;;;;;;;22.56;47.39;101460.53;688044;28;1109;-79
2022/06/11 00:17:18;;;;;;;8.00;3.40;;;;;;;22.64;47.51;101465.75;685114;28;1677;-80
2022/06/11 00:17:38;;;;;;;6.43;3.13;;;;;;;22.53;47.78;101449.91;684282;28;1458;-80
2022/06/11 00:17:59;;;;;;;6.70;3.10;;;;;;;22.61;47.52;101464.00;685527;28;1129;-80
2022/06/11 00:18:22;;;;;;;5.53;3.10;;;;;;;22.56;47.78;101457.88;686198;28;1799;-79
2022/06/11 00:18:44;;;;;;;5.68;3.22;;;;;;;22.56;47.67;101455.22;685453;28;1257;-79
2022/06/11 00:19:06;;;;;;;4.50;3.10;;;;;;;22.58;47.66;101464.03;685147;28;1486;-79
2022/06/11 00:19:28;;;;;;;3.40;3.10;;;;;;;22.63;47.49;101462.22;684517;28;1151;-79
2022/06/11 00:19:49;;;;;;;3.83;3.20;;;;;;;22.63;47.67;101470.19;685136;28;1424;-79
2022/06/11 00:20:10;;;;;;;5.00;3.40;;;;;;;22.55;47.55;101454.31;682715;29;1128;-79
2022/06/11 00:20:32;;;;;;;6.25;3.55;;;;;;;22.53;47.56;101452.56;679240;29;1521;-80
2022/06/11 00:20:53;;;;;;;6.65;3.58;;;;;;;22.57;47.62;101456.97;682912;29;871;-79
2022/06/11 00:21:14;;;;;;;5.70;3.30;;;;;;;22.60;47.78;101464.91;682602;28;1852;-79
2022/06/11 00:21:39;;;;;;;4.80;3.20;;;;;;;22.57;47.88;101456.97;682649;29;1259;-80
2022/06/11 00:22:01;;;;;;;5.93;3.10;;;;;;;22.56;47.69;101458.72;682802;29;1430;-79
2022/06/11 00:22:23;;;;;;;6.63;3.20;;;;;;;22.57;47.82;101456.97;685422;28;1715;-80
2022/06/11 00:22:43;;;;;;;7.05;3.30;;;;;;;22.54;47.82;101449.88;685645;28;787;-79
2022/06/11 00:23:04;;;;;;;6.10;3.50;;;;;;;22.54;48.03;101454.31;682573;28;1672;-79
2022/06/11 00:23:26;;;;;;;5.78;3.40;;;;;;;22.60;48.06;101464.91;681237;28;1297;-79
2022/06/11 00:24:02;;;;;;;6.75;3.40;;;;;;;22.55;48.15;101459.63;687873;28;1229;-79
2022/06/11 00:24:25;;;;;;;6.45;3.30;;;;;;;22.52;47.70;101451.69;684610;28;1100;-79
2022/06/11 00:24:45;;;;;;;5.25;3.25;;;;;;;22.54;47.97;101451.66;688134;28;1146;-79
2022/06/11 00:25:07;;;;;;;6.60;3.30;;;;;;;22.59;47.91;101463.13;685180;28;2504;-79
2022/06/11 00:25:29;;;;;;;6.93;3.28;;;;;;;22.53;48.06;101449.91;690552;28;1489;-79
2022/06/11 00:25:50;;;;;;;7.47;3.30;;;;;;;22.53;48.14;101460.53;687457;28;1875;-79
2022/06/11 00:26:12;;;;;;;7.32;3.28;;;;;;;22.47;48.12;101445.53;682963;28;1102;-79
2022/06/11 00:26:33;;;;;;;8.05;3.30;;;;;;;22.48;48.05;101446.44;681930;29;1276;-79
2022/06/11 00:26:57;;;;;;;8.88;3.50;;;;;;;22.58;47.99;101464.03;682458;29;1355;-79
2022/06/11 00:27:19;;;;;;;7.30;3.50;;;;;;;22.55;47.98;101453.41;687661;28;1537;-79
2022/06/11 00:27:40;;;;;;;5.13;3.42;;;;;;;22.49;48.03;101451.72;688137;28;1264;-79
2022/06/11 00:28:03;;;;;;;4.43;3.22;;;;;;;22.55;47.89;101466.72;685404;28;1017;-79
2022/06/11 00:28:24;;;;;;;4.07;3.28;;;;;;;22.51;47.85;101460.56;686788;28;1056;-79
2022/06/11 00:28:45;;;;;;;3.55;3.20;;;;;;;22.54;48.01;101470.28;687288;28;1320;-78
2022/06/11 00:29:05;;;;;;;3.85;3.13;;;;;;;22.51;48.06;101465.00;682947;28;1877;-79
2022/06/11 00:29:29;;;;;;;5.00;3.30;;;;;;;22.54;48.23;101468.50;681670;29;1291;-79
2022/06/11 00:29:52;;;;;;;6.05;3.47;;;;;;;22.49;48.19;101462.34;685355;28;1367;-80
2022/06/11 00:30:13;;;;;;;6.43;3.60;;;;;;;22.50;48.24;101457.94;690636;28;1881;-79
2022/06/11 00:30:34;;;;;;;4.72;3.22;;;;;;;22.44;48.22;101459.75;691290;28;1120;-79
2022/06/11 00:30:56;;;;;;;5.53;3.20;;;;;;;22.49;48.13;101462.34;690822;28;1141;-79
2022/06/11 00:31:17;;;;;;;5.35;3.00;;;;;;;22.52;48.24;101469.41;688934;28;1744;-79
2022/06/11 00:31:38;;;;;;;6.50;3.20;;;;;;;22.51;48.04;101470.31;685537;28;1006;-79
2022/06/11 00:31:59;;;;;;;5.20;3.38;;;;;;;22.41;48.13;101458.91;682996;29;815;-79
2022/06/11 00:32:20;;;;;;;6.25;3.47;;;;;;;22.43;48.35;101463.31;685953;28;2017;-79
2022/06/11 00:32:41;;;;;;;5.93;3.40;;;;;;;22.48;48.41;101467.72;688048;28;1902;-79
2022/06/11 00:33:06;;;;;;;5.00;3.13;;;;;;;22.42;48.44;101469.53;685223;28;1965;-79
2022/06/11 00:33:27;;;;;;;3.97;2.90;;;;;;;22.40;48.53;101451.81;685268;28;1438;-79
2022/06/11 00:33:48;;;;;;;4.43;3.08;;;;;;;22.46;48.73;101460.59;682993;29;729;-80
2022/06/11 00:34:10;;;;;;;4.75;3.35;;;;;;;22.41;48.47;101454.47;678125;29;1980;-79
2022/06/11 00:34:30;;;;;;;5.05;3.30;;;;;;;22.40;48.45;101450.06;682597;29;1220;-79
2022/06/11 00:34:53;;;;;;;4.18;2.97;;;;;;;22.40;48.46;101454.47;688177;28;1149;-80
2022/06/11 00:35:15;;;;;;;4.53;3.00;;;;;;;22.44;48.45;101459.75;686880;28;1992;-79
2022/06/11 00:35:39;;;;;;;4.70;3.20;;;;;;;22.40;48.45;101454.47;682862;28;1353;-79
2022/06/11 00:35:59;;;;;;;4.97;3.40;;;;;;;22.44;48.35;101462.41;682424;29;1409;-79
2022/06/11 00:36:20;;;;;;;5.50;3.53;;;;;;;22.42;48.50;101458.88;684157;28;1598;-79
2022/06/11 00:36:43;;;;;;;5.23;3.60;;;;;;;22.44;48.45;101458.88;679677;29;1154;-79
2022/06/11 00:37:05;;;;;;;4.18;3.35;;;;;;;22.37;48.48;101447.41;682099;28;1713;-79
2022/06/11 00:37:26;;;;;;;4.13;3.25;;;;;;;22.38;48.57;101449.16;685092;28;1722;-79
2022/06/11 00:37:47;;;;;;;4.78;3.42;;;;;;;22.43;48.64;101455.31;690753;28;1517;-79
2022/06/11 00:38:10;;;;;;;5.57;3.60;;;;;;;22.39;48.61;101453.63;687778;28;1583;-79
2022/06/11 00:38:31;;;;;;;5.85;3.80;;;;;;;22.45;48.54;101458.84;685335;28;1139;-80
2022/06/11 00:38:52;;;;;;;5.38;3.63;;;;;;;22.47;48.64;101466.81;682693;29;1458;-79
2022/06/11 00:39:16;;;;;;;4.88;3.45;;;;;;;22.43;48.71;101460.66;683340;28;1955;-79
2022/06/11 00:39:38;;;;;;;5.10;3.38;;;;;;;22.37;48.55;101444.75;682312;29;1276;-79
2022/06/11 00:40:00;;;;;;;4.78;3.20;;;;;;;22.44;48.45;101457.09;685278;28;1218;-79
2022/06/11 00:40:25;;;;;;;5.38;3.22;;;;;;;22.38;48.64;101454.47;684843;28;2016;-79
2022/06/11 00:40:48;;;;;;;6.80;3.35;;;;;;;22.48;48.57;101467.72;685572;28;863;-79
2022/06/11 00:41:09;;;;;;;6.97;3.50;;;;;;;22.46;48.63;101465.06;684017;28;2059;-79
2022/06/11 00:41:31;;;;;;;5.40;3.40;;;;;;;22.41;48.53;101457.13;687565;28;1489;-79
2022/06/11 00:41:55;;;;;;;4.45;3.42;;;;;;;22.39;48.70;101463.34;688242;28;863;-79
2022/06/11 00:42:22;;;;;;;6.20;3.70;;;;;;;22.47;48.52;101464.16;682344;28;1533;-79
2022/06/11 00:42:43;;;;;;;6.45;3.70;;;;;;;22.40;48.70;101454.47;682767;29;1705;-79
2022/06/11 00:43:06;;;;;;;5.93;3.53;;;;;;;22.44;48.63;101462.41;680139;29;983;-79
2022/06/11 00:43:28;;;;;;;6.53;3.60;;;;;;;22.43;48.86;101467.72;688235;28;1169;-79
2022/06/11 00:43:49;;;;;;;7.05;3.60;;;;;;;22.39;48.73;101450.97;688142;28;1127;-79
2022/06/11 00:44:10;;;;;;;7.22;3.55;;;;;;;22.36;48.48;101448.31;690208;28;1797;-79
2022/06/11 00:44:32;;;;;;;6.00;3.33;;;;;;;22.39;48.65;101456.28;687726;28;1099;-79
2022/06/11 00:45:12;;;;;;;5.40;3.30;;;;;;;22.44;48.79;101465.06;688147;28;1275;-79
2022/06/11 00:45:44;;;;;;;5.05;3.50;;;;;;;22.34;48.58;101442.13;687787;28;1164;-79
2022/06/11 00:46:39;;;;;;;6.80;3.47;;;;;;;22.44;48.66;101462.41;684384;28;1248;-79
2022/06/11 00:47:06;;;;;;;5.10;3.38;;;;;;;22.45;48.56;101458.84;684988;28;1115;-79
2022/06/11 00:47:27;;;;;;;6.30;3.40;;;;;;;22.37;48.90;101447.41;685235;28;1620;-79
2022/06/11 00:47:55;;;;;;;6.05;3.58;;;;;;;22.41;48.76;101454.47;688203;28;1466;-79
2022/06/11 00:48:30;;;;;;;6.95;3.65;;;;;;;22.42;48.94;101464.22;684826;28;1988;-79
2022/06/11 00:48:51;;;;;;;7.45;3.35;;;;;;;22.39;48.63;101448.28;682578;29;915;-79
2022/06/11 00:49:22;;;;;;;7.22;3.30;;;;;;;22.37;48.75;101444.75;680059;29;1487;-79
2022/06/11 00:49:50;;;;;;;5.10;3.00;;;;;;;22.40;48.69;101447.41;676061;29;1309;-80
2022/06/11 00:50:20;;;;;;;3.83;3.00;;;;;;;22.42;48.87;101458.00;682225;29;1978;-79
2022/06/11 00:51:19;;;;;;;5.25;3.40;;;;;;;22.37;48.82;101450.06;682700;29;954;-80
2022/06/11 00:51:40;;;;;;;5.18;3.50;;;;;;;22.39;48.82;101453.63;678290;29;1247;-79
2022/06/11 00:52:14;;;;;;;5.53;3.47;;;;;;;22.37;48.81;101450.06;681253;29;1564;-79
2022/06/11 00:52:38;;;;;;;7.05;3.22;;;;;;;22.34;48.84;101444.78;677177;29;1911;-79
2022/06/11 00:53:00;;;;;;;6.00;3.40;;;;;;;22.36;48.75;101447.44;680056;29;875;-79
2022/06/11 00:53:46;;;;;;;6.43;3.70;;;;;;;22.41;48.76;101467.75;677235;29;1293;-79
2022/06/11 00:54:14;;;;;;;6.07;3.65;;;;;;;22.43;48.81;101465.97;679362;29;1678;-79
2022/06/11 00:54:35;;;;;;;6.32;3.65;;;;;;;22.43;48.87;101459.75;684096;28;1731;-79
2022/06/11 00:55:18;;;;;;;6.13;3.70;;;;;;;22.41;48.96;101459.78;685488;28;811;-79
2022/06/11 00:55:42;;;;;;;7.07;3.67;;;;;;;22.41;48.99;101451.81;682677;29;964;-80
2022/06/11 00:56:17;;;;;;;6.43;3.70;;;;;;;22.38;48.84;101451.81;682233;29;1246;-79
2022/06/11 00:56:45;;;;;;;6.10;3.67;;;;;;;22.32;48.62;101444.81;682691;29;983;-79
2022/06/11 00:57:09;;;;;;;6.88;3.50;;;;;;;22.40;49.00;101457.13;682458;29;1143;-79
2022/06/11 00:57:34;;;;;;;6.45;3.30;;;;;;;22.38;48.59;101461.59;682542;29;1306;-79
2022/06/11 00:58:11;;;;;;;7.10;3.47;;;;;;;22.38;48.64;101461.59;685163;28;1380;-79
2022/06/11 00:58:38;;;;;;;6.07;3.35;;;;;;;22.33;48.86;101451.00;682556;28;1124;-79
2022/06/11 00:59:01;;;;;;;5.55;3.53;;;;;;;22.32;49.04;101451.91;682742;29;851;-80
2022/06/11 00:59:29;;;;;;;5.25;3.60;;;;;;;22.37;48.99;101463.34;685122;28;1403;-80
2022/06/11 00:59:57;;;;;;;7.32;3.60;;;;;;;22.37;48.93;101458.03;685640;28;1758;-79
2022/06/11 01:00:34;;;;;;;6.47;3.53;;;;;;;22.34;49.04;101458.09;682508;28;2015;-80
2022/06/11 01:00:58;;;;;;;5.07;3.30;;;;;;;22.29;48.82;101436.88;688025;28;811;-79
2022/06/11 01:01:21;;;;;;;5.05;3.40;;;;;;;22.30;48.79;101445.72;687075;28;1455;-80
2022/06/11 01:01:42;;;;;;;4.60;3.20;;;;;;;22.41;48.61;101451.81;677673;29;1735;-79
2022/06/11 01:02:04;;;;;;;4.17;3.40;;;;;;;22.41;48.78;101456.22;686783;28;1638;-80
2022/06/11 01:02:26;;;;;;;6.00;3.53;;;;;;;22.35;48.66;101443.91;685250;28;1160;-80
2022/06/11 01:02:48;;;;;;;6.38;3.70;;;;;;;22.38;48.76;101445.66;679753;29;1348;-79
2022/06/11 01:03:11;;;;;;;8.95;3.85;;;;;;;22.46;48.41;101457.94;680895;29;1316;-79
2022/06/11 01:03:38;;;;;;;6.53;3.60;;;;;;;22.31;48.50;101435.06;682199;29;1058;-80
2022/06/11 01:04:03;;;;;;;4.38;3.40;;;;;;;22.43;48.59;101452.66;681946;29;1710;-79
2022/06/11 01:04:37;;;;;;;4.80;3.50;;;;;;;22.34;48.51;101444.78;680994;29;1077;-79
2022/06/11 01:05:01;;;;;;;7.80;3.90;;;;;;;22.40;48.56;101447.41;681171;29;930;-79
2022/06/11 01:05:28;;;;;;;9.18;3.95;;;;;;;22.37;48.44;101442.09;682027;28;1953;-79
2022/06/11 01:05:57;;;;;;;9.70;4.05;;;;;;;22.40;48.68;101441.19;682863;29;872;-79
2022/06/11 01:06:32;;;;;;;8.32;3.97;;;;;;;22.44;48.23;101451.75;684179;28;1478;-79
2022/06/11 01:06:58;;;;;;;8.73;3.67;;;;;;;22.36;48.59;101437.66;682630;29;875;-80
2022/06/11 01:07:27;;;;;;;8.27;3.38;;;;;;;22.43;48.33;101449.13;679389;29;1611;-80
2022/06/11 01:08:08;;;;;;;5.82;3.42;;;;;;;22.43;48.32;101449.13;680627;29;1170;-79
2022/06/11 01:08:41;;;;;;;7.20;3.70;;;;;;;22.41;48.60;101451.81;681571;29;1160;-79
2022/06/11 01:09:35;;;;;;;6.95;3.33;;;;;;;22.40;48.51;101452.72;680004;29;2064;-79
2022/06/11 01:10:29;;;;;;;6.32;3.63;;;;;;;22.34;48.33;101436.81;682124;29;1386;-79
2022/06/11 01:11:24;;;;;;;4.88;3.08;;;;;;;22.46;48.23;101449.97;680903;29;1222;-79
2022/06/11 01:12:17;;;;;;;4.90;3.53;;;;;;;22.50;48.47;101463.25;685394;28;1194;-79
2022/06/11 01:12:45;;;;;;;5.85;3.20;;;;;;;22.46;48.30;101451.75;678706;29;1899;-80
2022/06/11 01:13:15;;;;;;;6.40;3.33;;;;;;;22.50;48.50;101457.94;679748;29;1624;-79
2022/06/11 01:14:10;;;;;;;5.90;3.60;;;;;;;22.41;48.48;101451.81;679909;29;1069;-79
2022/06/11 01:14:48;;;;;;;4.78;3.50;;;;;;;22.50;48.29;101460.59;678444;29;1284;-79
2022/06/11 01:15:22;;;;;;;5.82;3.13;;;;;;;22.42;48.24;101444.69;673805;29;1455;-79
2022/06/11 01:15:48;;;;;;;6.45;3.25;;;;;;;22.53;48.44;101463.19;682672;29;1121;-79
2022/06/11 01:16:16;;;;;;;7.28;3.55;;;;;;;22.41;48.20;101445.59;682327;29;1267;-79
2022/06/11 01:16:56;;;;;;;4.90;3.53;;;;;;;22.51;48.32;101463.22;682533;29;1238;-80
2022/06/11 01:17:30;;;;;;;3.80;3.40;;;;;;;22.52;48.24;101459.69;681445;28;1334;-79
2022/06/11 01:18:20;;;;;;;6.10;3.55;;;;;;;22.40;48.40;101450.06;682755;29;871;-79
2022/06/11 01:19:10;;;;;;;4.63;3.00;;;;;;;22.41;48.26;101440.28;685177;28;1219;-79
2022/06/11 01:19:52;;;;;;;4.35;3.60;;;;;;;22.50;48.61;101461.44;684434;28;2060;-80
2022/06/11 01:20:13;;;;;;;4.15;3.20;;;;;;;22.50;48.49;101456.13;684949;28;967;-79
2022/06/11 01:20:59;;;;;;;4.63;3.15;;;;;;;22.47;48.39;101461.50;683183;28;1618;-81
2022/06/11 01:22:00;;;;;;;4.90;3.30;;;;;;;22.45;48.52;101453.53;688925;28;1552;-79
2022/06/11 01:22:46;;;;;;;4.78;3.30;;;;;;;22.52;48.18;101459.69;687112;28;1105;-79
2022/06/11 01:23:37;;;;;;;3.90;3.00;;;;;;;22.54;47.99;101452.56;683516;28;1513;-80
2022/06/11 01:24:22;;;;;;;6.80;3.60;;;;;;;22.57;48.09;101459.63;683029;28;788;-79
2022/06/11 01:24:55;;;;;;;6.13;3.50;;;;;;;22.42;48.09;101440.28;682419;29;1128;-79
2022/06/11 01:25:21;;;;;;;6.95;3.70;;;;;;;22.55;48.16;101456.06;686744;28;1193;-79
2022/06/11 01:26:13;;;;;;;6.13;3.67;;;;;;;22.57;48.33;101462.28;685251;28;1033;-79
2022/06/11 01:27:12;;;;;;;6.35;3.72;;;;;;;22.61;48.05;101461.31;684782;28;1114;-79
2022/06/11 01:27:47;;;;;;;6.25;3.40;;;;;;;22.58;48.15;101453.41;683372;28;1303;-79
2022/06/11 01:28:29;;;;;;;6.05;3.42;;;;;;;22.56;48.21;101457.88;680735;28;1458;-80
2022/06/11 01:29:08;;;;;;;4.88;3.50;;;;;;;22.56;48.21;101455.22;682351;28;1015;-79
2022/06/11 01:29:54;;;;;;;5.40;3.20;;;;;;;22.57;48.41;101462.28;687640;28;1207;-79
2022/06/11 01:30:22;;;;;;;7.03;3.53;;;;;;;22.52;48.27;101453.47;684693;28;1462;-80
2022/06/11 01:30:50;;;;;;;7.30;3.63;;;;;;;22.54;48.15;101456.97;680011;29;1257;-79
2022/06/11 01:31:27;;;;;;;6.28;3.42;;;;;;;22.53;48.44;101444.56;682903;28;1467;-80
2022/06/11 01:31:56;;;;;;;4.55;3.30;;;;;;;22.56;48.01;101456.06;684927;28;950;-80
2022/06/11 01:32:52;;;;;;;5.63;3.50;;;;;;;22.63;48.21;101462.22;684015;28;1307;-79
2022/06/11 01:33:18;;;;;;;4.53;3.28;;;;;;;22.54;48.00;101446.34;685078;28;1078;-80
2022/06/11 01:34:10;;;;;;;4.85;3.70;;;;;;;22.59;48.18;101463.13;684810;28;1166;-80
2022/06/11 01:34:54;;;;;;;4.80;3.03;;;;;;;22.50;48.06;101439.31;684137;28;1253;-79
2022/06/11 01:35:23;;;;;;;4.47;3.00;;;;;;;22.57;48.50;101451.63;683578;28;1519;-79
2022/06/11 01:36:08;;;;;;;4.40;3.30;;;;;;;22.63;48.13;101461.31;680140;29;867;-79
2022/06/11 01:36:47;;;;;;;3.50;3.00;;;;;;;22.63;48.21;101459.56;682049;28;1740;-80
2022/06/11 01:37:23;;;;;;;4.70;3.33;;;;;;;22.54;47.99;101436.59;679466;29;1566;-80
2022/06/11 01:37:52;;;;;;;6.32;3.67;;;;;;;22.54;48.10;101436.59;676904;29;2122;-78
2022/06/11 01:38:17;;;;;;;7.05;3.80;;;;;;;22.56;48.08;101452.53;680430;29;983;-80
2022/06/11 01:38:52;;;;;;;6.20;4.00;;;;;;;22.56;47.90;101442.78;687921;28;868;-79
2022/06/11 01:39:20;;;;;;;9.20;3.70;;;;;;;22.52;48.28;101438.41;685359;28;968;-79
2022/06/11 01:40:00;;;;;;;11.50;3.40;;;;;;;22.52;47.96;101443.72;682239;29;900;-79
2022/06/11 01:40:31;;;;;;;7.35;3.50;;;;;;;22.61;48.51;101458.66;683060;28;1381;-80
2022/06/11 01:41:27;;;;;;;7.75;3.47;;;;;;;22.59;48.19;101450.72;684203;28;1528;-79
2022/06/11 01:41:58;;;;;;;4.30;3.58;;;;;;;22.62;48.11;101455.09;682538;28;1300;-79
2022/06/11 01:42:34;;;;;;;4.78;3.22;;;;;;;22.64;48.23;101458.66;681606;29;1361;-80
2022/06/11 01:43:10;;;;;;;6.65;3.38;;;;;;;22.63;48.31;101454.25;679934;29;1444;-80
2022/06/11 01:43:40;;;;;;;6.30;3.50;;;;;;;22.55;48.45;101448.09;680220;29;1078;-79
2022/06/11 01:44:08;;;;;;;5.75;3.45;;;;;;;22.58;48.40;101458.72;685309;28;862;-79
2022/06/11 01:44:33;;;;;;;6.03;3.60;;;;;;;22.49;48.57;101443.72;684063;28;1621;-80
2022/06/11 01:45:14;;;;;;;6.55;3.50;;;;;;;22.49;48.30;101442.88;684795;28;1138;-79
2022/06/11 01:45:37;;;;;;;7.38;3.30;;;;;;;22.57;48.44;101454.31;685076;28;1072;-79
2022/06/11 01:46:01;;;;;;;6.35;3.50;;;;;;;22.45;48.43;101437.56;684194;28;1111;-80
2022/06/11 01:46:31;;;;;;;4.30;3.40;;;;;;;22.55;48.53;101453.41;686366;28;1992;-80
2022/06/11 01:46:54;;;;;;;5.20;3.40;;;;;;;22.55;48.44;101453.41;688733;28;1368;-79
2022/06/11 01:47:15;;;;;;;4.53;3.40;;;;;;;22.45;48.57;101442.88;684769;28;2036;-79
2022/06/11 01:47:36;;;;;;;5.22;3.53;;;;;;;22.50;48.74;101449.94;685048;28;1085;-79
2022/06/11 01:47:59;;;;;;;4.68;3.40;;;;;;;22.44;48.79;101441.13;682605;29;1254;-79
2022/06/11 01:48:24;;;;;;;4.50;3.50;;;;;;;22.51;48.65;101451.72;683958;28;1957;-79
2022/06/11 01:48:50;;;;;;;5.60;3.67;;;;;;;22.43;48.64;101444.69;687933;28;1430;-79
2022/06/11 01:49:20;;;;;;;7.07;3.90;;;;;;;22.52;48.70;101461.44;683170;28;1264;-80
2022/06/11 01:49:47;;;;;;;6.68;3.78;;;;;;;22.46;48.67;101444.66;682088;29;2238;-79
2022/06/11 01:50:11;;;;;;;7.35;3.55;;;;;;;22.45;48.87;101448.19;687570;28;1849;-79
2022/06/11 01:50:37;;;;;;;8.32;3.50;;;;;;;22.47;48.64;101448.19;687261;28;1133;-79
2022/06/11 01:51:12;;;;;;;7.88;3.60;;;;;;;22.42;48.76;101437.63;685278;28;1304;-79
2022/06/11 01:51:46;;;;;;;5.05;3.53;;;;;;;22.53;48.70;101457.88;682566;28;1135;-80
2022/06/11 01:52:42;;;;;;;7.60;3.97;;;;;;;22.53;48.56;101465.84;684608;28;1577;-79
2022/06/11 01:53:30;;;;;;;7.05;3.58;;;;;;;22.52;48.55;101462.34;682379;29;1898;-79
2022/06/11 01:54:08;;;;;;;6.57;3.15;;;;;;;22.42;48.77;101450.91;682625;28;1317;-79
2022/06/11 01:54:47;;;;;;;8.07;3.55;;;;;;;22.53;48.65;101463.19;687598;28;1742;-79
2022/06/11 01:55:30;;;;;;;7.05;3.55;;;;;;;22.51;48.71;101462.34;687677;28;1481;-80
2022/06/11 01:55:57;;;;;;;5.72;3.42;;;;;;;22.41;48.70;101450.91;687847;28;776;-79
2022/06/11 01:56:21;;;;;;;6.07;3.45;;;;;;;22.40;48.73;101452.72;685013;28;1246;-79
2022/06/11 01:56:48;;;;;;;8.52;3.50;;;;;;;22.50;49.04;101460.59;685200;28;1230;-79
2022/06/11 01:57:34;;;;;;;8.60;3.63;;;;;;;22.48;48.98;101462.38;687610;28;1119;-79
2022/06/11 01:58:13;;;;;;;6.18;3.60;;;;;;;22.46;49.02;101465.91;679971;29;828;-78
2022/06/11 01:59:09;;;;;;;6.70;3.60;;;;;;;22.45;48.81;101450.88;686748;28;927;-79
2022/06/11 01:59:44;;;;;;;6.65;3.40;;;;;;;22.39;48.86;101442.97;686019;28;1383;-79
2022/06/11 02:00:14;;;;;;;8.77;3.40;;;;;;;22.50;48.86;101457.94;682316;29;1227;-79
2022/06/11 02:00:38;;;;;;;6.97;3.38;;;;;;;22.37;48.81;101436.78;681776;29;1279;-79
2022/06/11 02:01:06;;;;;;;5.03;3.40;;;;;;;22.46;48.90;101449.97;677046;29;1264;-80
2022/06/11 02:01:53;;;;;;;5.55;3.42;;;;;;;22.41;48.85;101451.81;680697;29;1462;-79
2022/06/11 02:02:22;;;;;;;6.45;3.50;;;;;;;22.48;49.18;101462.38;683461;28;1986;-79
2022/06/11 02:03:04;;;;;;;8.55;3.60;;;;;;;22.46;48.92;101452.63;682601;28;1606;-80
2022/06/11 02:03:37;;;;;;;7.30;3.60;;;;;;;22.45;48.99;101453.53;686631;28;1720;-79
2022/06/11 02:04:24;;;;;;;6.63;3.72;;;;;;;22.43;49.21;101452.66;687898;28;882;-80
2022/06/11 02:05:15;;;;;;;5.22;3.30;;;;;;;22.44;49.10;101465.06;679401;29;1311;-80
2022/06/11 02:06:15;;;;;;;5.55;3.42;;;;;;;22.33;49.24;101443.03;682252;28;1133;-79
2022/06/11 02:06:48;;;;;;;6.85;3.80;;;;;;;22.42;49.06;101460.66;682310;29;1294;-79
2022/06/11 02:07:16;;;;;;;6.65;3.72;;;;;;;22.43;49.32;101463.31;684821;28;1499;-79
2022/06/11 02:07:54;;;;;;;6.95;3.70;;;;;;;22.43;49.36;101459.75;684987;28;1518;-80
2022/06/11 02:08:30;;;;;;;6.13;3.40;;;;;;;22.32;49.30;101446.59;686016;28;1936;-79
2022/06/11 02:08:50;;;;;;;5.40;3.50;;;;;;;22.40;49.25;101460.69;687888;28;1104;-79
2022/06/11 02:09:21;;;;;;;6.90;3.38;;;;;;;22.40;49.44;101454.47;684418;28;1986;-80
2022/06/11 02:09:54;;;;;;;5.82;3.20;;;;;;;22.41;49.35;101454.47;681811;29;2034;-79
2022/06/11 02:10:27;;;;;;;6.22;3.80;;;;;;;22.31;49.38;101450.13;680599;29;1742;-79
2022/06/11 02:11:05;;;;;;;6.88;3.72;;;;;;;22.31;49.43;101450.13;685247;28;1263;-80
2022/06/11 02:11:39;;;;;;;6.65;3.40;;;;;;;22.36;49.42;101464.25;686183;28;1173;-79
2022/06/11 02:12:14;;;;;;;7.03;3.35;;;;;;;22.38;49.70;101467.78;683966;28;1668;-79
2022/06/11 02:12:54;;;;;;;7.97;3.90;;;;;;;22.36;49.56;101461.59;686969;28;1132;-78
2022/06/11 02:13:32;;;;;;;5.13;3.40;;;;;;;22.28;49.77;101456.38;682024;29;2029;-79
2022/06/11 02:14:29;;;;;;;4.70;3.50;;;;;;;22.23;49.66;101451.94;682538;29;863;-79
2022/06/11 02:15:16;;;;;;;8.13;3.60;;;;;;;22.30;49.73;101466.97;685177;28;962;-79
2022/06/11 02:15:48;;;;;;;5.05;3.10;;;;;;;22.21;49.77;101453.75;685222;28;1054;-80
2022/06/11 02:16:21;;;;;;;4.03;3.20;;;;;;;22.27;49.74;101459.03;686856;28;1486;-79
2022/06/11 02:16:56;;;;;;;3.90;3.50;;;;;;;22.28;49.70;101467.00;685273;28;1068;-79
2022/06/11 02:17:23;;;;;;;5.40;3.88;;;;;;;22.18;50.04;101455.56;683576;28;934;-79
2022/06/11 02:17:50;;;;;;;5.53;3.70;;;;;;;22.27;49.73;101464.38;687752;28;1381;-80
2022/06/11 02:18:15;;;;;;;4.63;3.30;;;;;;;22.25;49.79;101466.13;682073;29;1697;-79
2022/06/11 02:18:37;;;;;;;5.10;3.28;;;;;;;22.16;49.98;101457.34;684243;28;1104;-79
2022/06/11 02:19:02;;;;;;;4.93;3.35;;;;;;;22.17;49.96;101458.22;685043;28;1354;-79
2022/06/11 02:19:30;;;;;;;6.28;3.65;;;;;;;22.18;50.03;101458.22;685731;28;1283;-80
2022/06/11 02:20:18;;;;;;;6.43;3.80;;;;;;;22.21;50.07;101459.06;687678;28;1221;-79